RKV weather

Reykjavik Airport
Reykjavik, Capital Region, Iceland

Public forecast

Using degrees Celsius for public forecast. Weather courtesy of forecast.io.

METAR (pilot weather report)

Retrieved 2018/09/24 17:00 UTC (34 minutes ago):

BIRK 241700Z 24023KT 9999 VCSH FEW021CB SCT025 BKN030 06/02 Q1006

TAF (pilot weather forecast)

Retrieved 2018/09/24 15:45 UTC (2 hours ago):

TAF BIRK 241342Z 2415/2515 22025G40KT 9999 -SHRA FEW015CB BKN020 TX07/2415Z TN04/2506Z TEMPO 2415/2424 4000 SHRA BKN010CB BECMG 2500/2503 16012KT 5000 RADZ OVC012 BECMG 2503/2506 08018KT 1500 RADZ BR OVC005 BECMG 2509/2512 26013KT 9000 -RA BKN015